Elmora, Pennsylvania
Current Conditions -  °F | °C
As of 8:15 PM on Saturday 22 Nov 2014 (Local Time) from KIDI Reporting Station
Overcast Overcast  
Wind Chill: 41°   Ceiling: 6500
Heat Index: 45°   Visibility: 10mi
Dew Point: 32°   Wind: 6mph
Humidity: 61%   Direction: 230°SW
Pressure: 30.15"   Gusts: NA
Location:  40.6°N, 78.75°W
Report Text: KIDI 230115Z AUTO 23005KT 10SM BKN065 OVC080 07/M00 A3015 RMK A01
Loading
Personal Weather Stations






























Interactive Weather Map New forecast layout! Learn more

10-Day Weather Forecast

Advertisements
Track Severe Weather on mobile